Sandy Creek, TX (76556)

3:38 PM CST on February 06, 2016 (GMT -0600)
east cameron | | Change Station
CLOSE
Current Station
Personal Weather Station
Location: Cameron, TX
Elevation: 404 ft
Nearby Weather Stations

Elev 404 ft 30.86 °N, 96.96 °W | Updated 4 minutes ago

Clear
Clear
53.4 °F
Feels Like 53.4 °F
N
6.8
Wind Variable Wind from NNE

Today
High -- | Low -- °F
--% Chance of Precip.
Yesterday
High -- | Low -- °F
Precip. -- in
Pressure 30.34 in
Visibility 10.0 miles
Clouds Mostly Cloudy 4100 ft
Dew Point 37 °F
Humidity 53%
Rainfall 0.10 in
Snow Depth Not available.
7:15 AM 6:07 PM
Waning Crescent, 4% visible
METAR KT35 062115Z AUTO 36017G21KT 10SM BKN041 11/02 A3034 RMK AO2 T01130018
Pressure 30.34 in
Visibility 10.0 miles
Clouds Mostly Cloudy 4100 ft
Dew Point 37 °F
Humidity 53%
Rainfall 0.10 in
Snow Depth Not available.
7:15 AM 6:07 PM
Waning Crescent, 4% visible
METAR KT35 062115Z AUTO 36017G21KT 10SM BKN041 11/02 A3034 RMK AO2 T01130018

10-Day Weather Forecast

Almanac

Astronomy

Feb. 06, 2016 Rise Set
Actual Time
Civil Twilight
Nautical Twilight
Astronomical Twilight
Moon
Length of Visible Light
Length of Day
Tomorrow will be .
, % of the Moon is Illuminated

Today's Extremes

State Highs State Lows

Community

WunderPhotos

Upload Photos

1,891,052 photos uploaded!

WunderBlog® & News

Nearby

Air Quality

  Air Quality AQ Index Pollutant
Not available.

Snow Depth

Station Depth Elevation

Earthquake Activity

City Distance Mag. Time & Date
Minimum magnitude displayed is 2.5.

Coastal Water Temperatures

Place Temperature

Stations

Nearby Weather Stations

Station Location Temp. Windchill Dew Point Humidity Wind Precip. Elev Updated Type
                   

Watches & Warnings

There are currently no watches in effect.